Time;durP1;ratioP1;P1;durP2;ratioP2;P2;SDS_P1;SDS_P2;PMS_P1;PMS_P2;Temp;Humidity;BMP_temperature;BMP_pressure;BME280_temperature;BME280_humidity;BME280_pressure;Samples;Min_cycle;Max_cycle;Signal;HPM_P1;HPM_P2
2021/06/14 07:10:26;;;;;;;6.03;3.42;;;;;;;;;;12798343;22;1514809;-84
2021/06/14 07:15:52;;;;;;;6.50;3.10;;;;;;;;;;12847371;23;20000;-86
2021/06/14 07:20:57;;;;;;;6.15;3.15;;;;;;;;;;12843044;23;20008;-84
2021/06/14 07:25:58;;;;;;;6.88;3.50;;;;;;;;;;12846012;23;20000;-83
2021/06/14 07:30:59;;;;;;;5.95;2.55;;;;;;;;;;12870280;23;20011;-83
2021/06/14 07:36:00;;;;;;;3.97;2.58;;;;;;;;;;12844428;23;20437;-83
2021/06/14 07:41:01;;;;;;;5.75;3.40;;;;;;;;;;12845280;23;20036;-83
2021/06/14 07:46:02;;;;;;;7.38;3.50;;;;;;;;;;12846165;23;20000;-82
2021/06/14 07:51:05;;;;;;;4.57;3.13;;;;;;;;;;12841328;23;20071;-82
2021/06/14 07:56:07;;;;;;;5.35;3.22;;;;;;;;;;12872859;23;20023;-83
2021/06/14 08:01:08;;;;;;;5.65;2.90;;;;;;;;;;12852095;23;20050;-84
2021/06/14 08:06:09;;;;;;;4.40;2.90;;;;;;;;;;12848797;23;20000;-83
2021/06/14 08:11:11;;;;;;;7.75;4.60;;;;;;;;;;12848059;23;20016;-83
2021/06/14 08:16:11;;;;;;;4.65;2.88;;;;;;;;;;12849463;23;19996;-81
2021/06/14 08:26:32;;;;;;;7.60;3.25;;;;;;;;;;12872848;23;20059;-83
2021/06/14 08:31:34;;;;;;;6.30;3.42;;;;;;;;;;12845719;23;20001;-84
2021/06/14 08:36:35;;;;;;;5.40;3.60;;;;;;;;;;12843592;23;20005;-82
2021/06/14 08:41:36;;;;;;;4.30;2.92;;;;;;;;;;12848094;23;19997;-84
2021/06/14 08:46:38;;;;;;;4.63;3.42;;;;;;;;;;12852907;23;20012;-83
2021/06/14 08:51:39;;;;;;;5.53;3.35;;;;;;;;;;12856431;23;20084;-83
2021/06/14 08:56:41;;;;;;;3.90;2.88;;;;;;;;;;12852335;23;20056;-83
2021/06/14 09:01:42;;;;;;;5.13;3.20;;;;;;;;;;12846205;23;20051;-84
2021/06/14 09:06:43;;;;;;;5.72;3.47;;;;;;;;;;12850790;23;20024;-84
2021/06/14 09:11:51;;;;;;;4.55;3.13;;;;;;;;;;12847193;23;20059;-85
2021/06/14 09:17:18;;;;;;;6.13;3.40;;;;;;;;;;12847825;23;19997;-84
2021/06/14 09:22:23;;;;;;;8.02;3.42;;;;;;;;;;12850702;23;20087;-84
2021/06/14 09:27:39;;;;;;;5.93;3.53;;;;;;;;;;12849658;23;20024;-84
2021/06/14 09:32:59;;;;;;;4.80;2.88;;;;;;;;;;12848107;23;20041;-83
2021/06/14 09:38:08;;;;;;;4.75;3.33;;;;;;;;;;12870350;23;20013;-84
2021/06/14 09:43:20;;;;;;;3.88;3.28;;;;;;;;;;12885448;23;19904;-85
2021/06/14 09:48:22;;;;;;;6.60;3.30;;;;;;;;;;12886448;23;20005;-84
2021/06/14 09:53:26;;;;;;;6.78;3.40;;;;;;;;;;12880597;23;20020;-84
2021/06/14 09:58:27;;;;;;;6.80;4.75;;;;;;;;;;12863697;23;20019;-85
2021/06/14 10:03:47;;;;;;;8.32;3.90;;;;;;;;;;12886565;23;20325;-85
2021/06/14 10:08:49;;;;;;;4.68;3.38;;;;;;;;;;12863206;23;20039;-85
2021/06/14 10:13:51;;;;;;;4.75;3.20;;;;;;;;;;12866919;23;20056;-84
2021/06/14 10:18:54;;;;;;;4.30;3.10;;;;;;;;;;12860848;23;20007;-84
2021/06/14 10:23:55;;;;;;;4.22;2.88;;;;;;;;;;12858107;23;20011;-84
2021/06/14 10:28:57;;;;;;;5.95;2.55;;;;;;;;;;12855759;23;20001;-84
2021/06/14 10:33:58;;;;;;;4.03;3.22;;;;;;;;;;12858141;23;20060;-85
2021/06/14 10:39:01;;;;;;;5.15;3.30;;;;;;;;;;12860744;23;20076;-83
2021/06/14 10:44:05;;;;;;;4.50;3.15;;;;;;;;;;12865946;23;19918;-84
2021/06/14 10:49:06;;;;;;;4.43;2.60;;;;;;;;;;12860063;23;20001;-84
2021/06/14 10:54:08;;;;;;;7.13;4.50;;;;;;;;;;12858950;23;20001;-84
2021/06/14 10:59:10;;;;;;;4.30;3.20;;;;;;;;;;12868156;23;19996;-85
2021/06/14 11:04:22;;;;;;;3.85;3.03;;;;;;;;;;12887335;23;20333;-85
2021/06/14 11:55:17;;;;;;;4.15;3.13;;;;;;;;;;12568369;23;20006;-86
2021/06/14 13:03:17;;;;;;;6.90;4.75;;;;;;;;;;12759689;23;20005;-85
2021/06/14 13:26:25;;;;;;;7.05;3.83;;;;;;;;;;12556459;23;20007;-85
2021/06/14 13:37:27;;;;;;;4.75;3.83;;;;;;;;;;12565368;23;20499;-86
2021/06/14 13:43:19;;;;;;;7.40;3.28;;;;;;;;;;12545309;23;20285;-86
2021/06/14 13:54:44;;;;;;;7.28;4.43;;;;;;;;;;12159369;24;20069;-85
2021/06/14 14:06:04;;;;;;;5.68;4.38;;;;;;;;;;12105151;24;20117;-85
2021/06/14 14:11:33;;;;;;;7.88;4.75;;;;;;;;;;12095692;24;20023;-85
2021/06/14 14:34:19;;;;;;;7.10;3.97;;;;;;;;;;12472554;23;20468;-85
2021/06/14 14:40:04;;;;;;;7.20;3.92;;;;;;;;;;12514896;23;20007;-86
2021/06/14 14:45:59;;;;;;;6.80;3.58;;;;;;;;;;12418015;24;20019;-85
2021/06/14 14:51:38;;;;;;;5.30;3.97;;;;;;;;;;12189835;24;20014;-85
2021/06/14 15:13:52;;;;;;;7.68;3.95;;;;;;;;;;12211671;24;20017;-83
2021/06/14 15:24:55;;;;;;;6.32;3.35;;;;;;;;;;12675427;23;20010;-85
2021/06/14 15:30:21;;;;;;;6.90;3.45;;;;;;;;;;12775839;23;20013;-85
2021/06/14 15:36:01;;;;;;;8.45;3.70;;;;;;;;;;12754772;23;20032;-83
2021/06/14 15:47:32;;;;;;;6.40;3.75;;;;;;;;;;12655379;23;20002;-84
2021/06/14 16:20:58;;;;;;;6.20;3.60;;;;;;;;;;12539263;23;20026;-85
2021/06/14 16:25:59;;;;;;;5.88;3.67;;;;;;;;;;12560153;23;20009;-84
2021/06/14 16:31:03;;;;;;;4.78;3.47;;;;;;;;;;12783776;23;20002;-84
2021/06/14 16:36:05;;;;;;;6.43;3.83;;;;;;;;;;12758351;23;20006;-85
2021/06/14 16:41:06;;;;;;;6.68;3.92;;;;;;;;;;12758851;23;20005;-84
2021/06/14 16:46:16;;;;;;;7.28;3.83;;;;;;;;;;12758333;23;20006;-84
2021/06/14 16:51:18;;;;;;;7.10;3.90;;;;;;;;;;12742436;23;20006;-84
2021/06/14 16:56:19;;;;;;;5.40;3.53;;;;;;;;;;12763631;23;20009;-84
2021/06/14 17:01:20;;;;;;;8.23;3.28;;;;;;;;;;12761096;23;20021;-84
2021/06/14 17:06:21;;;;;;;7.32;3.78;;;;;;;;;;12765214;23;20005;-83
2021/06/14 17:11:25;;;;;;;4.53;3.38;;;;;;;;;;12745689;23;20069;-84
2021/06/14 17:16:26;;;;;;;7.57;3.53;;;;;;;;;;12768795;23;20021;-84
2021/06/14 17:21:27;;;;;;;3.90;3.50;;;;;;;;;;12743034;23;20036;-84
2021/06/14 17:26:30;;;;;;;5.50;3.63;;;;;;;;;;12739919;23;20009;-84
2021/06/14 17:31:34;;;;;;;5.07;3.65;;;;;;;;;;12735909;23;20460;-84
2021/06/14 17:36:37;;;;;;;5.38;3.65;;;;;;;;;;12735771;23;20005;-84
2021/06/14 17:41:38;;;;;;;6.15;3.90;;;;;;;;;;12736246;23;20001;-83
2021/06/14 17:46:39;;;;;;;5.95;4.25;;;;;;;;;;12733597;23;20006;-84
2021/06/14 17:51:41;;;;;;;8.35;4.50;;;;;;;;;;12733401;23;20012;-84
2021/06/14 17:56:42;;;;;;;5.25;3.85;;;;;;;;;;12732771;23;20009;-84
2021/06/14 18:01:44;;;;;;;4.85;3.55;;;;;;;;;;12731633;23;20002;-84
2021/06/14 18:06:45;;;;;;;6.45;3.72;;;;;;;;;;12731921;23;20044;-84
2021/06/14 18:11:46;;;;;;;5.22;3.53;;;;;;;;;;12733019;23;20073;-84
2021/06/14 18:16:51;;;;;;;7.85;4.20;;;;;;;;;;12732093;23;20010;-84
2021/06/14 18:21:55;;;;;;;4.93;4.40;;;;;;;;;;12737623;23;20055;-85
2021/06/14 18:26:56;;;;;;;6.55;4.47;;;;;;;;;;12747862;23;20009;-84
2021/06/14 18:32:01;;;;;;;4.10;3.50;;;;;;;;;;12749436;23;20017;-84
2021/06/14 18:37:04;;;;;;;8.82;3.95;;;;;;;;;;12738379;23;20505;-84
2021/06/14 18:42:05;;;;;;;9.88;4.13;;;;;;;;;;12732604;23;20001;-84
2021/06/14 18:47:06;;;;;;;6.60;3.85;;;;;;;;;;12733968;23;20397;-84
2021/06/14 18:52:08;;;;;;;6.93;4.03;;;;;;;;;;12733609;23;20005;-84
2021/06/14 18:57:09;;;;;;;5.70;4.13;;;;;;;;;;12741448;23;20006;-84
2021/06/14 19:02:10;;;;;;;5.00;3.92;;;;;;;;;;12754162;23;20002;-84
2021/06/14 19:07:12;;;;;;;7.03;4.50;;;;;;;;;;12753119;23;20005;-84
2021/06/14 19:12:18;;;;;;;4.38;3.95;;;;;;;;;;12736916;23;20017;-83
2021/06/14 19:17:26;;;;;;;5.90;4.63;;;;;;;;;;12737418;23;20005;-83
2021/06/14 19:22:27;;;;;;;6.65;4.10;;;;;;;;;;12737817;23;20008;-84
2021/06/14 19:27:28;;;;;;;5.53;3.75;;;;;;;;;;12736333;23;20074;-83
2021/06/14 19:32:29;;;;;;;8.63;5.47;;;;;;;;;;12735710;23;20042;-84
2021/06/14 19:37:30;;;;;;;5.53;4.20;;;;;;;;;;12741412;23;20010;-84
2021/06/14 19:42:31;;;;;;;4.65;4.25;;;;;;;;;;12751317;23;20008;-84
2021/06/14 19:47:32;;;;;;;6.28;4.07;;;;;;;;;;12761295;23;20032;-84
2021/06/14 19:52:34;;;;;;;3.88;3.47;;;;;;;;;;12734661;23;20009;-83
2021/06/14 19:57:36;;;;;;;4.70;4.20;;;;;;;;;;12734134;23;20006;-84
2021/06/14 20:02:37;;;;;;;4.22;3.83;;;;;;;;;;12726901;23;20084;-84
2021/06/14 20:07:38;;;;;;;4.95;3.90;;;;;;;;;;12717072;23;20009;-84
2021/06/14 20:12:39;;;;;;;4.20;3.65;;;;;;;;;;12718962;23;20009;-84
2021/06/14 20:17:40;;;;;;;5.53;3.65;;;;;;;;;;12718356;23;20001;-84
